Details From EGKK - London Gatwick
To LEAL - Alicante
Flight Number -
Tags Generated
Created
Modified
Stats Distance 773 nm / 1,431 km
Max Altitude 0 ft / 0 m
Waypoints 5
Social Downloads 2
Likes 0
Share VATSIM

Download

Looking for another format? Having issues loading an existing format? Contact us
Advertisement - Login to hide

Notes

Generated

Route

EGKK ABSIE SURCO R2305 LEAL

ID Type Via Altitude Latitude Longitude Leg Dist Tot Dist Heading (true) Name
O EGKK APT - 0 ft / 0 m 51.14691˚ -0.21257˚ - 0 nm - -
ABSIE FIX - 0 ft / 0 m 46.58333˚ -0.45833˚ 274 nm 274 nm 182° / 182° -
SURCO FIX - 0 ft / 0 m 42.32882˚ -0.56794˚ 255 nm 529 nm 181° / 181° -
R2305 FIX - 0 ft / 0 m 38.28452˚ -0.57500˚ 242 nm 772 nm 180° / 180° -
O LEAL APT - 0 ft / 0 m 38.28452˚ -0.57500˚ 0 nm 772 nm 270° / 270° -

Altitude Profile

Advertisement - Login to hide

Weather


0- 5 10 15 20 25 30 35+ Temperature / ° C

Clouds and Precipitation
Forecast for 2017-12-16 06:00 UTC. Updated 27 minutes ago

Ground ~20,000 ft ~40,000 ft Winds

EGKK

Details ICAO EGKK (LGW)
Name London Gatwick
Region United Kingdom
Timezone Europe/London (UTC+0.0)
Stats Elevation 196 ft / 60 m (AMSL)
Location 51.148753° -0.192472°
Runways 2
Magnetic Variation 0.431° W

METAR

EGKK 160320Z 30004KT CAVOK 01/M01 Q1013

Decode

TAF

TAF TAF EGKK 152305Z 1600/1706 31010KT 9999 SCT025 PROB30 TEMPO 1600/1601 BKN014 PROB30 TEMPO 1615/1620 9000 -SHRA BKN014 BECMG 1622/1701 VRB04KT 7000 TEMPO 1700/1706 3000 BR BKN005 PROB30 1703/1706 0300 FG BKN001

Decode

Departure Runways

ID Width Length Bearing (true) Bearing (mag) Surface Threshold Offset Overrun Length
08L 148 ft / 45 m 8,377 ft / 2,553 m 77.69° 78.12° Asphalt 1,053 ft / 321 m 0 ft / 0 m
08R 148 ft / 45 m 10,341 ft / 3,152 m 77.59° 78.02° Asphalt 1,289 ft / 393 m 0 ft / 0 m
26L 148 ft / 45 m 10,341 ft / 3,152 m 257.63° 258.06° Asphalt 879 ft / 268 m 600 ft / 183 m
26R 148 ft / 45 m 8,377 ft / 2,553 m 257.71° 258.14° Asphalt 1,365 ft / 416 m 0 ft / 0 m

LEAL

Details ICAO LEAL (ALC)
Name Alicante
Region Spain
Timezone Europe/Madrid (UTC+1.0)
Stats Elevation 141 ft / 43 m (AMSL)
Location 38.282169° -0.558157°
Runways 1
Magnetic Variation 0.184° E

METAR

LEAL 160330Z 30011KT CAVOK 10/00 Q1013 NOSIG

Decode

TAF

TAF TAF LEAL 152300Z 1600/1624 32005KT 9999 FEW030 TX17/1613Z TN07/1606Z TEMPO 1600/1610 31012KT

Decode

Destination Runways

ID Width Length Bearing (true) Bearing (mag) Surface Threshold Offset Overrun Length
10 148 ft / 45 m 9,799 ft / 2,987 m 100.07° 99.89° Asphalt 0 ft / 0 m 164 ft / 50 m
28 148 ft / 45 m 9,799 ft / 2,987 m 280.09° 279.91° Asphalt 0 ft / 0 m 197 ft / 60 m

Approach Navaids

Runway Type Ident Frequency Range Bearing (true) Bearing (mag) Slope Elevation
10 Localiser IAT 110.30 MHz 18 nm / 33 km 100.09° 99.91° - 29 ft / 9 m (AMSL)
10 Glidescope IAT 110.30 MHz 10 nm / 19 km 100.09° 99.91° 3.00° 129 ft / 39 m (AMSL)
10 DME IAT 110.30 MHz 18 nm / 33 km - - - 129 ft / 39 m (AMSL)

Popular Alternatives